createdAt,value
2018-08-12T00:00:29.963Z,61.07
2018-08-12T00:02:59.832Z,61.23
2018-08-12T00:05:28.706Z,62.06
2018-08-12T00:07:57.572Z,60.71
2018-08-12T00:10:26.662Z,60.36
2018-08-12T00:12:55.479Z,59.30
2018-08-12T00:15:24.696Z,59.70
2018-08-12T00:17:53.519Z,59.07
2018-08-12T00:20:23.479Z,59.57
2018-08-12T00:22:52.333Z,60.24
2018-08-12T00:25:22.964Z,61.42
2018-08-12T00:27:51.773Z,61.51
2018-08-12T00:30:20.866Z,60.84
2018-08-12T00:32:49.719Z,59.87
2018-08-12T00:35:19.458Z,59.82
2018-08-12T00:37:48.371Z,58.00
2018-08-12T00:40:17.879Z,58.77
2018-08-12T00:42:47.174Z,58.16
2018-08-12T00:45:17.879Z,58.73
2018-08-12T00:47:46.909Z,57.89
2018-08-12T00:50:16.598Z,58.60
2018-08-12T00:52:45.475Z,59.23
2018-08-12T00:55:15.689Z,59.11
2018-08-12T00:57:45.734Z,59.75
2018-08-12T01:00:16.624Z,60.14
2018-08-12T01:02:45.427Z,60.50
2018-08-12T01:05:15.966Z,60.60
2018-08-12T01:07:45.545Z,60.46
2018-08-12T01:10:15.114Z,60.33
2018-08-12T01:12:43.997Z,60.36
2018-08-12T01:15:16.784Z,60.15
2018-08-12T01:17:45.974Z,60.91
2018-08-12T01:20:18.790Z,60.25
2018-08-12T01:22:47.623Z,60.45
2018-08-12T01:25:16.820Z,61.33
2018-08-12T01:27:45.613Z,62.10
2018-08-12T01:30:17.449Z,62.57
2018-08-12T01:32:46.988Z,62.10
2018-08-12T01:35:16.244Z,63.31
2018-08-12T01:37:45.838Z,63.50
2018-08-12T01:40:15.821Z,63.85
2018-08-12T01:42:45.133Z,64.96
2018-08-12T01:45:15.889Z,64.42
2018-08-12T01:47:44.686Z,64.86
2018-08-12T01:50:14.941Z,65.07
2018-08-12T01:52:43.935Z,65.53
2018-08-12T01:55:12.711Z,65.38
2018-08-12T01:57:41.980Z,65.52
2018-08-12T02:00:16.338Z,65.79
2018-08-12T02:02:45.700Z,65.84
2018-08-12T02:05:14.618Z,66.59
2018-08-12T02:07:43.943Z,66.78
2018-08-12T02:10:12.839Z,66.45
2018-08-12T02:12:42.030Z,66.46
2018-08-12T02:15:11.792Z,66.65
2018-08-12T02:17:41.025Z,66.70
2018-08-12T02:20:10.801Z,66.68
2018-08-12T02:22:40.839Z,66.69
2018-08-12T02:25:11.037Z,67.03
2018-08-12T02:27:39.930Z,67.33
2018-08-12T02:30:10.805Z,66.95
2018-08-12T02:32:40.006Z,66.64
2018-08-12T02:35:09.285Z,67.26
2018-08-12T02:37:38.080Z,67.19
2018-08-12T02:40:08.862Z,67.06
2018-08-12T02:42:38.092Z,68.00
2018-08-12T02:45:09.425Z,67.41
2018-08-12T02:47:38.722Z,68.24
2018-08-12T02:50:07.975Z,68.10
2018-08-12T02:52:37.392Z,67.97
2018-08-12T02:55:07.555Z,68.42
2018-08-12T02:57:36.449Z,67.57
2018-08-12T03:00:06.845Z,68.03
2018-08-12T03:02:35.554Z,68.66
2018-08-12T03:05:04.538Z,68.73
2018-08-12T03:07:33.675Z,68.41
2018-08-12T03:10:02.450Z,67.81
2018-08-12T03:12:31.519Z,67.61
2018-08-12T03:15:00.247Z,68.05
2018-08-12T03:17:29.055Z,68.00
2018-08-12T03:19:57.929Z,67.58
2018-08-12T03:22:27.180Z,68.38
2018-08-12T03:24:56.459Z,67.97
2018-08-12T03:27:25.415Z,68.02
2018-08-12T03:29:54.239Z,68.05
2018-08-12T03:32:23.363Z,67.48
2018-08-12T03:34:52.491Z,68.06
2018-08-12T03:37:21.288Z,67.30
2018-08-12T03:39:50.170Z,67.25
2018-08-12T03:42:18.950Z,67.03
2018-08-12T03:44:47.705Z,67.57
2018-08-12T03:47:16.446Z,67.69
2018-08-12T03:49:45.227Z,67.21
2018-08-12T03:52:13.972Z,66.83
2018-08-12T03:54:42.743Z,67.02
2018-08-12T03:57:11.518Z,67.16
2018-08-12T03:59:40.307Z,67.22
2018-08-12T04:02:09.093Z,66.85
2018-08-12T04:04:37.872Z,66.92
2018-08-12T04:07:07.034Z,66.55
2018-08-12T04:09:35.826Z,66.51
2018-08-12T04:12:04.615Z,65.82
2018-08-12T04:14:33.429Z,66.09
2018-08-12T04:17:02.548Z,66.17
2018-08-12T04:19:32.139Z,65.99
2018-08-12T04:22:01.443Z,65.47
2018-08-12T04:24:30.274Z,66.00
2018-08-12T04:26:59.122Z,65.75
2018-08-12T04:29:27.907Z,66.40
2018-08-12T04:31:56.770Z,65.54
2018-08-12T04:34:25.555Z,65.21
2018-08-12T04:36:54.279Z,64.72
2018-08-12T04:39:23.068Z,63.89
2018-08-12T04:41:52.222Z,63.64
2018-08-12T04:44:20.994Z,61.52
2018-08-12T04:46:49.799Z,59.98
2018-08-12T04:49:18.663Z,57.86
2018-08-12T04:51:47.434Z,56.30
2018-08-12T04:54:16.190Z,54.63
2018-08-12T04:56:44.970Z,53.84
2018-08-12T04:59:13.735Z,52.91
2018-08-12T05:01:42.531Z,50.64
2018-08-12T05:04:11.339Z,49.58
2018-08-12T05:06:40.148Z,47.54
2018-08-12T05:09:10.570Z,47.45
2018-08-12T05:11:39.690Z,47.60
2018-08-12T05:14:08.555Z,47.23
2018-08-12T05:16:37.342Z,48.04
2018-08-12T05:19:06.159Z,48.48
2018-08-12T05:21:34.926Z,49.90
2018-08-12T05:24:03.770Z,50.37
2018-08-12T05:26:32.606Z,52.16
2018-08-12T05:29:01.735Z,52.02
2018-08-12T05:31:30.983Z,52.93
2018-08-12T05:33:59.754Z,53.53
2018-08-12T05:36:28.555Z,53.66
2018-08-12T05:38:57.351Z,53.00
2018-08-12T05:41:26.129Z,53.13
2018-08-12T05:43:55.119Z,52.17
2018-08-12T05:46:24.660Z,52.69
2018-08-12T05:48:53.552Z,53.58
2018-08-12T05:51:22.307Z,53.93
2018-08-12T05:53:51.243Z,54.50
2018-08-12T05:56:20.068Z,55.04
2018-08-12T05:58:49.273Z,54.66
2018-08-12T06:01:18.117Z,53.76
2018-08-12T06:03:46.896Z,53.88
2018-08-12T06:06:16.038Z,54.34
2018-08-12T06:08:44.851Z,54.16
2018-08-12T06:11:13.807Z,53.47
2018-08-12T06:13:42.575Z,54.21
2018-08-12T06:16:11.505Z,55.51
2018-08-12T06:18:40.635Z,54.48
2018-08-12T06:21:09.463Z,54.99
2018-08-12T06:23:38.222Z,54.78
2018-08-12T06:26:07.837Z,55.19
2018-08-12T06:28:36.738Z,55.29
2018-08-12T06:31:05.618Z,55.76
2018-08-12T06:33:34.443Z,56.65
2018-08-12T06:36:03.293Z,55.39
2018-08-12T06:38:32.075Z,55.53
2018-08-12T06:41:00.830Z,55.58
2018-08-12T06:43:29.667Z,56.85
2018-08-12T06:45:58.478Z,54.54
2018-08-12T06:48:27.310Z,55.10
2018-08-12T06:50:56.207Z,53.82
2018-08-12T06:53:24.966Z,55.27
2018-08-12T06:55:54.076Z,54.43
2018-08-12T06:58:22.880Z,54.63
2018-08-12T07:00:51.855Z,54.49
2018-08-12T07:03:20.632Z,54.24
2018-08-12T07:05:49.407Z,54.38
2018-08-12T07:08:18.283Z,52.98
2018-08-12T07:10:47.204Z,53.91
2018-08-12T07:13:16.317Z,52.44
2018-08-12T07:15:45.529Z,52.81
2018-08-12T07:18:14.422Z,51.94
2018-08-12T07:20:43.323Z,51.34
2018-08-12T07:23:12.184Z,52.03
2018-08-12T07:25:41.379Z,51.33
2018-08-12T07:28:10.204Z,51.78
2018-08-12T07:30:39.034Z,51.39
2018-08-12T07:33:07.841Z,50.90
2018-08-12T07:35:36.646Z,50.07
2018-08-12T07:38:05.446Z,49.96
2018-08-12T07:40:34.282Z,51.14
2018-08-12T07:43:03.047Z,49.68
2018-08-12T07:45:32.120Z,49.44
2018-08-12T07:48:00.857Z,49.52
2018-08-12T07:50:29.990Z,50.37
2018-08-12T07:52:58.725Z,49.75
2018-08-12T07:55:27.557Z,48.63
2018-08-12T07:57:57.328Z,48.59
2018-08-12T08:00:26.821Z,49.02
2018-08-12T08:02:55.681Z,48.75
2018-08-12T08:05:25.144Z,48.63
2018-08-12T08:07:54.443Z,48.39
2018-08-12T08:10:23.247Z,47.58
2018-08-12T08:12:52.109Z,48.11
2018-08-12T08:15:21.751Z,47.44
2018-08-12T08:17:50.766Z,48.58
2018-08-12T08:20:19.544Z,47.54
2018-08-12T08:22:48.656Z,48.13
2018-08-12T08:25:17.413Z,45.74
2018-08-12T08:27:46.320Z,45.88
2018-08-12T08:30:16.340Z,43.19
2018-08-12T08:32:45.299Z,45.15
2018-08-12T08:35:14.603Z,45.11
2018-08-12T08:37:43.997Z,43.45
2018-08-12T08:40:14.230Z,40.71
2018-08-12T08:42:43.090Z,40.59
2018-08-12T08:45:15.739Z,42.25
2018-08-12T08:47:46.105Z,41.57
2018-08-12T08:50:15.239Z,41.45
2018-08-12T08:52:44.448Z,41.04
2018-08-12T08:55:14.210Z,41.43
2018-08-12T08:57:43.560Z,40.39
2018-08-12T09:00:15.271Z,39.40
2018-08-12T09:02:46.868Z,39.94
2018-08-12T09:05:16.265Z,39.77
2018-08-12T09:07:45.527Z,40.70
2018-08-12T09:10:16.010Z,41.12
2018-08-12T09:12:44.955Z,41.01
2018-08-12T09:15:15.799Z,40.18
2018-08-12T09:17:45.433Z,40.68
2018-08-12T09:20:15.973Z,40.08
2018-08-12T09:22:44.882Z,40.04
2018-08-12T09:25:14.182Z,40.96
2018-08-12T09:27:42.934Z,41.07
2018-08-12T09:30:14.033Z,41.15
2018-08-12T09:32:43.393Z,40.72
2018-08-12T09:35:12.231Z,40.15
2018-08-12T09:37:41.099Z,40.93
2018-08-12T09:40:12.269Z,41.07
2018-08-12T09:42:41.921Z,40.14
2018-08-12T09:45:13.151Z,40.52
2018-08-12T09:47:42.045Z,40.93
2018-08-12T09:50:11.738Z,40.88
2018-08-12T09:52:40.746Z,40.76
2018-08-12T09:55:10.661Z,41.64
2018-08-12T09:57:39.446Z,40.25
2018-08-12T10:00:11.825Z,40.61
2018-08-12T10:02:40.731Z,40.21
2018-08-12T10:05:09.879Z,39.71
2018-08-12T10:07:38.671Z,39.20
2018-08-12T10:10:07.543Z,38.78
2018-08-12T10:12:36.691Z,39.38
2018-08-12T10:15:06.331Z,39.50
2018-08-12T10:17:35.468Z,39.43
2018-08-12T10:20:04.839Z,38.31
2018-08-12T10:22:33.678Z,39.24
2018-08-12T10:25:02.480Z,38.62
2018-08-12T10:27:31.223Z,39.01
2018-08-12T10:29:59.999Z,38.15
2018-08-12T10:32:28.854Z,36.93
2018-08-12T10:34:57.594Z,38.42
2018-08-12T10:37:26.768Z,38.89
2018-08-12T10:39:55.960Z,39.17
2018-08-12T10:42:24.752Z,38.88
2018-08-12T10:44:53.512Z,39.16
2018-08-12T10:47:22.266Z,39.65
2018-08-12T10:49:51.498Z,38.25
2018-08-12T10:52:20.378Z,38.89
2018-08-12T10:54:49.226Z,38.16
2018-08-12T10:57:18.159Z,37.71
2018-08-12T10:59:47.372Z,37.79
2018-08-12T11:02:17.091Z,39.08
2018-08-12T11:04:46.031Z,38.79
2018-08-12T11:07:14.864Z,39.17
2018-08-12T11:09:43.736Z,38.78
2018-08-12T11:12:12.555Z,39.04
2018-08-12T11:14:41.671Z,38.57
2018-08-12T11:17:10.885Z,38.34
2018-08-12T11:19:39.730Z,38.66
2018-08-12T11:22:10.569Z,38.02
2018-08-12T11:24:39.366Z,37.51
2018-08-12T11:27:08.284Z,38.31
2018-08-12T11:29:37.127Z,37.89
2018-08-12T11:32:06.440Z,38.40
2018-08-12T11:34:35.304Z,37.68
2018-08-12T11:37:04.143Z,37.40
2018-08-12T11:39:32.999Z,38.16
2018-08-12T11:42:01.862Z,37.86
2018-08-12T11:44:30.721Z,38.53
2018-08-12T11:46:59.501Z,38.39
2018-08-12T11:49:28.307Z,38.49
2018-08-12T11:51:57.123Z,37.65
2018-08-12T11:54:25.927Z,38.22
2018-08-12T11:56:54.835Z,38.03
2018-08-12T11:59:24.110Z,37.81
2018-08-12T12:01:52.931Z,37.81
2018-08-12T12:04:21.758Z,37.92
2018-08-12T12:06:51.082Z,38.03
2018-08-12T12:09:19.864Z,36.96
2018-08-12T12:11:48.717Z,37.77
2018-08-12T12:14:17.509Z,37.46
2018-08-12T12:16:46.416Z,38.63
2018-08-12T12:19:15.814Z,36.85
2018-08-12T12:21:44.647Z,36.83
2018-08-12T12:24:13.983Z,35.69
2018-08-12T12:26:43.095Z,36.36
2018-08-12T12:29:11.886Z,37.29
2018-08-12T12:31:40.659Z,37.94
2018-08-12T12:34:09.671Z,36.35
2018-08-12T12:36:38.877Z,38.31
2018-08-12T12:39:09.597Z,36.76
2018-08-12T12:41:38.513Z,35.63
2018-08-12T12:44:07.802Z,36.42
2018-08-12T12:46:36.650Z,35.89
2018-08-12T12:49:05.589Z,37.20
2018-08-12T12:51:34.364Z,37.90
2018-08-12T12:54:03.234Z,35.21
2018-08-12T12:56:32.044Z,37.06
2018-08-12T12:59:00.902Z,36.40
2018-08-12T13:01:29.640Z,36.88
2018-08-12T13:03:58.456Z,36.70
2018-08-12T13:06:27.691Z,36.15
2018-08-12T13:08:56.522Z,36.82
2018-08-12T13:11:25.463Z,36.04
2018-08-12T13:13:54.255Z,36.21
2018-08-12T13:16:23.351Z,35.62
2018-08-12T13:18:52.134Z,35.75
2018-08-12T13:21:21.007Z,36.60
2018-08-12T13:23:49.827Z,36.39
2018-08-12T13:26:19.010Z,36.06
2018-08-12T13:28:47.841Z,35.48
2018-08-12T13:31:16.605Z,35.94
2018-08-12T13:33:45.350Z,36.27
2018-08-12T13:36:14.170Z,35.38
2018-08-12T13:38:42.973Z,36.02
2018-08-12T13:41:11.824Z,36.42
2018-08-12T13:43:40.814Z,34.93
2018-08-12T13:46:09.640Z,35.28
2018-08-12T13:48:38.526Z,34.54
2018-08-12T13:51:07.330Z,35.55
2018-08-12T13:53:36.042Z,35.19
2018-08-12T13:56:04.879Z,35.41
2018-08-12T13:58:33.681Z,35.71
2018-08-12T14:01:02.494Z,36.41
2018-08-12T14:03:31.366Z,37.12
2018-08-12T14:06:00.159Z,36.02
2018-08-12T14:08:28.968Z,35.21
2018-08-12T14:10:57.820Z,35.91
2018-08-12T14:13:26.586Z,36.32
2018-08-12T14:15:55.439Z,34.80
2018-08-12T14:18:24.230Z,34.97
2018-08-12T14:20:53.141Z,36.26
2018-08-12T14:23:22.102Z,35.24
2018-08-12T14:25:50.858Z,36.88
2018-08-12T14:28:19.637Z,35.15
2018-08-12T14:30:48.482Z,35.16
2018-08-12T14:33:17.313Z,36.27
2018-08-12T14:35:46.115Z,35.24
2018-08-12T14:38:14.946Z,36.23
2018-08-12T14:40:43.711Z,35.95
2018-08-12T14:43:12.480Z,36.26
2018-08-12T14:45:41.387Z,35.45
2018-08-12T14:48:10.143Z,36.18
2018-08-12T14:50:38.842Z,35.77
2018-08-12T14:53:07.922Z,35.48
2018-08-12T14:55:36.762Z,36.17
2018-08-12T14:58:05.862Z,35.53
2018-08-12T15:00:34.638Z,36.43
2018-08-12T15:03:03.499Z,36.24
2018-08-12T15:05:32.246Z,36.32
2018-08-12T15:08:01.502Z,36.41
2018-08-12T15:10:30.305Z,36.24
2018-08-12T15:12:59.480Z,36.05
2018-08-12T15:15:28.239Z,36.54
2018-08-12T15:17:57.206Z,35.12
2018-08-12T15:20:26.462Z,35.59
2018-08-12T15:22:55.296Z,34.73
2018-08-12T15:25:24.201Z,35.76
2018-08-12T15:27:53.305Z,35.55
2018-08-12T15:30:22.091Z,34.70
2018-08-12T15:32:50.910Z,35.40
2018-08-12T15:35:19.703Z,34.75
2018-08-12T15:37:48.886Z,35.95
2018-08-12T15:40:17.761Z,35.27
2018-08-12T15:42:46.575Z,35.63
2018-08-12T15:45:16.731Z,36.26
2018-08-12T15:47:46.096Z,35.38
2018-08-12T15:50:15.408Z,36.27
2018-08-12T15:52:45.516Z,35.91
2018-08-12T15:55:14.967Z,37.05
2018-08-12T15:57:43.826Z,36.63
2018-08-12T16:00:16.838Z,36.46
2018-08-12T16:02:46.241Z,36.87
2018-08-12T16:05:15.075Z,35.79
2018-08-12T16:07:44.646Z,36.54
2018-08-12T16:10:17.060Z,36.85
2018-08-12T16:12:47.198Z,37.58
2018-08-12T16:15:16.115Z,38.03
2018-08-12T16:17:45.006Z,37.44
2018-08-12T16:20:13.994Z,37.31
2018-08-12T16:22:43.329Z,37.58
2018-08-12T16:25:14.667Z,38.95
2018-08-12T16:27:44.096Z,38.22
2018-08-12T16:30:15.757Z,38.96
2018-08-12T16:32:44.620Z,38.74
2018-08-12T16:35:15.667Z,38.64
2018-08-12T16:37:45.152Z,37.76
2018-08-12T16:40:17.645Z,38.59
2018-08-12T16:42:47.270Z,39.10
2018-08-12T16:45:16.757Z,38.94
2018-08-12T16:47:46.069Z,38.89
2018-08-12T16:50:15.009Z,38.75
2018-08-12T16:52:44.438Z,38.92
2018-08-12T16:55:14.810Z,39.60
2018-08-12T16:57:44.692Z,39.61
2018-08-12T17:00:21.912Z,38.47
2018-08-12T17:02:50.782Z,38.21
2018-08-12T17:05:20.987Z,38.20
2018-08-12T17:07:50.023Z,39.59
2018-08-12T17:10:19.610Z,39.50
2018-08-12T17:12:48.522Z,39.01
2018-08-12T17:15:19.106Z,39.24
2018-08-12T17:17:48.456Z,40.44
2018-08-12T17:20:18.729Z,40.94
2018-08-12T17:22:47.942Z,40.50
2018-08-12T17:25:17.223Z,41.22
2018-08-12T17:27:46.237Z,40.55
2018-08-12T17:30:16.056Z,41.89
2018-08-12T17:32:44.859Z,41.01
2018-08-12T17:35:13.995Z,40.88
2018-08-12T17:37:44.461Z,41.57
2018-08-12T17:40:14.379Z,41.46
2018-08-12T17:42:43.198Z,41.88
2018-08-12T17:45:13.581Z,41.25
2018-08-12T17:47:42.891Z,41.29
2018-08-12T17:50:13.227Z,41.57
2018-08-12T17:52:42.819Z,42.64
2018-08-12T17:55:11.579Z,42.84
2018-08-12T17:57:40.530Z,42.30
2018-08-12T18:00:12.944Z,42.15
2018-08-12T18:02:41.697Z,41.96
2018-08-12T18:05:12.988Z,42.08
2018-08-12T18:07:42.195Z,43.09
2018-08-12T18:10:11.047Z,42.47
2018-08-12T18:12:39.830Z,43.43
2018-08-12T18:15:10.069Z,43.07
2018-08-12T18:17:39.125Z,42.35
2018-08-12T18:20:08.218Z,43.02
2018-08-12T18:22:37.721Z,43.08
2018-08-12T18:25:07.859Z,42.70
2018-08-12T18:27:36.939Z,43.30
2018-08-12T18:30:08.669Z,43.32
2018-08-12T18:32:37.487Z,43.24
2018-08-12T18:35:07.491Z,43.59
2018-08-12T18:37:36.700Z,43.62
2018-08-12T18:40:06.629Z,44.34
2018-08-12T18:42:35.612Z,45.22
2018-08-12T18:45:04.750Z,44.88
2018-08-12T18:47:33.613Z,44.64
2018-08-12T18:50:02.709Z,44.69
2018-08-12T18:52:31.563Z,45.85
2018-08-12T18:55:00.308Z,45.88
2018-08-12T18:57:29.161Z,46.42
2018-08-12T18:59:58.037Z,47.70
2018-08-12T19:02:26.854Z,47.76
2018-08-12T19:04:56.451Z,48.56
2018-08-12T19:07:25.334Z,48.80
2018-08-12T19:09:54.122Z,50.04
2018-08-12T19:12:23.062Z,50.33
2018-08-12T19:14:51.927Z,50.57
2018-08-12T19:17:20.798Z,51.02
2018-08-12T19:19:49.983Z,50.74
2018-08-12T19:22:19.265Z,51.95
2018-08-12T19:24:48.072Z,52.12
2018-08-12T19:27:16.818Z,53.02
2018-08-12T19:29:45.643Z,53.31
2018-08-12T19:32:14.387Z,52.39
2018-08-12T19:34:43.183Z,53.25
2018-08-12T19:37:12.578Z,53.02
2018-08-12T19:39:41.327Z,53.63
2018-08-12T19:42:10.227Z,53.37
2018-08-12T19:44:39.042Z,54.03
2018-08-12T19:47:07.975Z,54.22
2018-08-12T19:49:36.770Z,54.53
2018-08-12T19:52:05.564Z,53.86
2018-08-12T19:54:34.774Z,54.73
2018-08-12T19:57:03.787Z,54.75
2018-08-12T19:59:32.546Z,54.90
2018-08-12T20:02:01.480Z,54.44
2018-08-12T20:04:30.238Z,54.59
2018-08-12T20:06:59.026Z,55.40
2018-08-12T20:09:27.831Z,55.12
2018-08-12T20:11:56.787Z,55.22
2018-08-12T20:14:25.721Z,55.19
2018-08-12T20:16:54.611Z,55.00
2018-08-12T20:19:23.390Z,54.86
2018-08-12T20:21:52.223Z,54.25
2018-08-12T20:24:21.004Z,54.17
2018-08-12T20:26:50.230Z,54.47
2018-08-12T20:29:19.090Z,54.25
2018-08-12T20:31:47.874Z,54.45
2018-08-12T20:34:17.023Z,55.50
2018-08-12T20:36:45.801Z,55.47
2018-08-12T20:39:14.886Z,54.97
2018-08-12T20:41:44.366Z,55.19
2018-08-12T20:44:13.163Z,56.23
2018-08-12T20:46:41.933Z,56.34
2018-08-12T20:49:10.698Z,56.01
2018-08-12T20:51:40.219Z,55.88
2018-08-12T20:54:09.076Z,56.77
2018-08-12T20:56:37.868Z,56.75
2018-08-12T20:59:06.674Z,56.48
2018-08-12T21:01:35.442Z,56.33
2018-08-12T21:04:04.237Z,56.38
2018-08-12T21:06:33.403Z,57.21
2018-08-12T21:09:02.194Z,58.01
2018-08-12T21:11:30.928Z,57.77
2018-08-12T21:13:59.721Z,57.88
2018-08-12T21:16:28.526Z,57.93
2018-08-12T21:18:57.531Z,57.48
2018-08-12T21:21:26.540Z,57.76
2018-08-12T21:23:55.695Z,58.36
2018-08-12T21:26:24.562Z,59.08
2018-08-12T21:28:53.818Z,58.93
2018-08-12T21:31:22.993Z,59.04
2018-08-12T21:33:51.787Z,60.07
2018-08-12T21:36:20.618Z,60.45
2018-08-12T21:38:49.367Z,59.81
2018-08-12T21:41:18.157Z,59.63
2018-08-12T21:43:46.929Z,59.75
2018-08-12T21:46:15.722Z,60.47
2018-08-12T21:48:44.869Z,59.94
2018-08-12T21:51:13.621Z,60.23
2018-08-12T21:53:42.491Z,59.31
2018-08-12T21:56:11.603Z,59.88
2018-08-12T21:58:40.375Z,59.62
2018-08-12T22:01:09.151Z,57.99
2018-08-12T22:03:38.353Z,57.17
2018-08-12T22:06:07.256Z,57.27
2018-08-12T22:08:36.568Z,58.34
2018-08-12T22:11:05.407Z,57.83
2018-08-12T22:13:34.181Z,58.57
2018-08-12T22:16:03.135Z,58.98
2018-08-12T22:18:31.984Z,59.75
2018-08-12T22:21:00.759Z,60.15
2018-08-12T22:23:29.556Z,59.71
2018-08-12T22:25:58.351Z,60.01
2018-08-12T22:28:27.092Z,60.00
2018-08-12T22:30:55.943Z,60.32
2018-08-12T22:33:24.961Z,60.46
2018-08-12T22:35:53.761Z,59.95
2018-08-12T22:38:22.607Z,59.09
2018-08-12T22:40:51.415Z,59.57
2018-08-12T22:43:20.213Z,59.55
2018-08-12T22:45:48.970Z,60.42
2018-08-12T22:48:17.799Z,59.65
2018-08-12T22:50:46.536Z,60.32
2018-08-12T22:53:15.366Z,60.09
2018-08-12T22:55:44.142Z,60.70
2018-08-12T22:58:13.274Z,60.33
2018-08-12T23:00:43.352Z,60.49
2018-08-12T23:03:12.556Z,61.23
2018-08-12T23:05:42.229Z,61.09
2018-08-12T23:08:11.789Z,60.46
2018-08-12T23:10:41.284Z,60.60
2018-08-12T23:13:10.128Z,61.21
2018-08-12T23:16:24.995Z,61.37
2018-08-12T23:18:55.082Z,62.14
2018-08-12T23:21:23.973Z,61.57
2018-08-12T23:23:53.454Z,62.11
2018-08-12T23:26:23.788Z,62.19
2018-08-12T23:28:52.631Z,62.93
2018-08-12T23:31:21.432Z,63.06
2018-08-12T23:33:50.176Z,62.39
2018-08-12T23:36:19.049Z,63.49
2018-08-12T23:38:47.799Z,63.32
2018-08-12T23:41:16.595Z,63.20
2018-08-12T23:43:45.372Z,62.62
2018-08-12T23:46:14.223Z,63.01
2018-08-12T23:48:42.988Z,63.26
2018-08-12T23:51:11.696Z,63.54
2018-08-12T23:53:40.467Z,63.26
2018-08-12T23:56:09.348Z,63.76
2018-08-12T23:58:38.158Z,63.16
